sensor_id;sensor_type;location;lat;lon;timestamp;temperature;humidity
963;DHT22;469;48.770;9.176;2022-12-29T10:41:16;14.10;1.00
963;DHT22;469;48.770;9.176;2022-12-29T10:46:28;14.20;1.00
963;DHT22;469;48.770;9.176;2022-12-29T10:52:39;14.40;1.00
963;DHT22;469;48.770;9.176;2022-12-29T10:58:54;14.70;1.00
963;DHT22;469;48.770;9.176;2022-12-29T11:01:46;14.90;1.00
963;DHT22;469;48.770;9.176;2022-12-29T11:08:17;15.00;1.00
963;DHT22;469;48.770;9.176;2022-12-29T11:28:16;14.80;1.00
963;DHT22;469;48.770;9.176;2022-12-29T11:31:00;14.50;1.00
963;DHT22;469;48.770;9.176;2022-12-29T11:33:27;14.40;1.00
963;DHT22;469;48.770;9.176;2022-12-29T11:35:57;14.30;1.00
963;DHT22;469;48.770;9.176;2022-12-29T11:38:31;14.40;1.00
963;DHT22;469;48.770;9.176;2022-12-29T11:40:59;14.30;1.00
963;DHT22;469;48.770;9.176;2022-12-29T11:43:31;14.30;1.00
963;DHT22;469;48.770;9.176;2022-12-29T11:45:59;14.00;1.00
963;DHT22;469;48.770;9.176;2022-12-29T11:48:31;13.90;1.00
963;DHT22;469;48.770;9.176;2022-12-29T11:50:59;13.70;1.00
963;DHT22;469;48.770;9.176;2022-12-29T11:53:36;13.70;1.00
963;DHT22;469;48.770;9.176;2022-12-29T11:56:08;13.60;1.00
963;DHT22;469;48.770;9.176;2022-12-29T11:58:37;13.60;1.00
963;DHT22;469;48.770;9.176;2022-12-29T12:01:06;13.50;1.00
963;DHT22;469;48.770;9.176;2022-12-29T12:04:08;13.50;1.00
963;DHT22;469;48.770;9.176;2022-12-29T12:06:51;13.60;1.00
963;DHT22;469;48.770;9.176;2022-12-29T12:09:32;13.60;1.00
963;DHT22;469;48.770;9.176;2022-12-29T12:12:05;13.60;1.00
963;DHT22;469;48.770;9.176;2022-12-29T12:14:40;13.60;1.00
963;DHT22;469;48.770;9.176;2022-12-29T12:17:13;13.70;1.00
963;DHT22;469;48.770;9.176;2022-12-29T12:19:56;13.70;1.00
963;DHT22;469;48.770;9.176;2022-12-29T12:22:32;13.70;1.00
963;DHT22;469;48.770;9.176;2022-12-29T12:25:09;13.60;1.00
963;DHT22;469;48.770;9.176;2022-12-29T12:27:44;13.60;1.00
963;DHT22;469;48.770;9.176;2022-12-29T12:30:30;13.50;1.00
963;DHT22;469;48.770;9.176;2022-12-29T12:33:18;13.60;1.00
963;DHT22;469;48.770;9.176;2022-12-29T12:35:57;13.70;1.00
963;DHT22;469;48.770;9.176;2022-12-29T12:38:36;13.70;1.00
963;DHT22;469;48.770;9.176;2022-12-29T12:41:08;13.80;1.00
963;DHT22;469;48.770;9.176;2022-12-29T12:43:42;13.80;1.00
963;DHT22;469;48.770;9.176;2022-12-29T12:49:36;13.60;1.00
963;DHT22;469;48.770;9.176;2022-12-29T12:52:13;13.40;1.00
963;DHT22;469;48.770;9.176;2022-12-29T12:54:57;13.20;1.00
963;DHT22;469;48.770;9.176;2022-12-29T12:57:40;13.20;1.00
963;DHT22;469;48.770;9.176;2022-12-29T13:00:14;13.30;1.00
963;DHT22;469;48.770;9.176;2022-12-29T13:03:12;13.30;1.00
963;DHT22;469;48.770;9.176;2022-12-29T13:06:15;13.50;1.00
963;DHT22;469;48.770;9.176;2022-12-29T13:09:08;13.50;1.00
963;DHT22;469;48.770;9.176;2022-12-29T13:12:00;13.60;1.00
963;DHT22;469;48.770;9.176;2022-12-29T13:14:39;13.60;1.00
963;DHT22;469;48.770;9.176;2022-12-29T13:17:13;13.70;1.00
963;DHT22;469;48.770;9.176;2022-12-29T13:19:54;13.60;1.00
963;DHT22;469;48.770;9.176;2022-12-29T13:22:28;13.70;1.00
963;DHT22;469;48.770;9.176;2022-12-29T13:25:07;13.80;1.00
963;DHT22;469;48.770;9.176;2022-12-29T13:27:44;13.70;1.00
963;DHT22;469;48.770;9.176;2022-12-29T13:30:18;13.70;1.00
963;DHT22;469;48.770;9.176;2022-12-29T13:32:56;13.70;1.00
963;DHT22;469;48.770;9.176;2022-12-29T13:35:43;13.60;1.00
963;DHT22;469;48.770;9.176;2022-12-29T13:38:18;13.70;1.00
963;DHT22;469;48.770;9.176;2022-12-29T13:40:50;13.60;1.00
963;DHT22;469;48.770;9.176;2022-12-29T13:43:20;13.70;1.00
963;DHT22;469;48.770;9.176;2022-12-29T13:45:56;13.60;1.00
963;DHT22;469;48.770;9.176;2022-12-29T13:48:39;13.60;1.00
963;DHT22;469;48.770;9.176;2022-12-29T13:51:11;13.70;1.00
963;DHT22;469;48.770;9.176;2022-12-29T13:53:52;13.60;1.00
963;DHT22;469;48.770;9.176;2022-12-29T13:56:25;13.60;1.00
963;DHT22;469;48.770;9.176;2022-12-29T13:58:57;13.60;1.00
963;DHT22;469;48.770;9.176;2022-12-29T14:01:35;13.50;1.00
963;DHT22;469;48.770;9.176;2022-12-29T14:04:10;13.40;1.00
963;DHT22;469;48.770;9.176;2022-12-29T14:06:38;13.40;1.00
963;DHT22;469;48.770;9.176;2022-12-29T14:11:51;13.40;1.00
963;DHT22;469;48.770;9.176;2022-12-29T14:14:21;13.40;1.00
963;DHT22;469;48.770;9.176;2022-12-29T14:16:53;13.50;1.00
963;DHT22;469;48.770;9.176;2022-12-29T14:19:24;13.50;1.00
963;DHT22;469;48.770;9.176;2022-12-29T14:21:55;13.40;1.00
963;DHT22;469;48.770;9.176;2022-12-29T14:24:43;13.40;1.00
963;DHT22;469;48.770;9.176;2022-12-29T14:27:51;13.30;1.00
963;DHT22;469;48.770;9.176;2022-12-29T14:30:46;13.20;1.00
963;DHT22;469;48.770;9.176;2022-12-29T14:33:14;13.10;1.00
963;DHT22;469;48.770;9.176;2022-12-29T14:35:43;13.10;1.00
963;DHT22;469;48.770;9.176;2022-12-29T14:38:17;13.20;1.00
963;DHT22;469;48.770;9.176;2022-12-29T14:40:45;13.10;1.00
963;DHT22;469;48.770;9.176;2022-12-29T14:43:17;13.10;1.00
963;DHT22;469;48.770;9.176;2022-12-29T14:45:54;13.00;1.00
963;DHT22;469;48.770;9.176;2022-12-29T14:48:38;12.90;1.00
963;DHT22;469;48.770;9.176;2022-12-29T14:51:24;12.80;1.00
963;DHT22;469;48.770;9.176;2022-12-29T14:53:55;12.80;1.00
963;DHT22;469;48.770;9.176;2022-12-29T14:56:26;12.80;1.00
963;DHT22;469;48.770;9.176;2022-12-29T14:58:55;12.90;1.00
963;DHT22;469;48.770;9.176;2022-12-29T15:01:27;12.80;1.00
963;DHT22;469;48.770;9.176;2022-12-29T15:03:57;12.80;1.00
963;DHT22;469;48.770;9.176;2022-12-29T15:06:32;12.70;1.00
963;DHT22;469;48.770;9.176;2022-12-29T15:09:24;12.70;1.00
963;DHT22;469;48.770;9.176;2022-12-29T15:11:54;12.60;1.00
963;DHT22;469;48.770;9.176;2022-12-29T15:14:35;12.60;1.00
963;DHT22;469;48.770;9.176;2022-12-29T15:17:10;12.60;1.00
963;DHT22;469;48.770;9.176;2022-12-29T15:19:39;12.50;1.00
963;DHT22;469;48.770;9.176;2022-12-29T15:22:06;12.40;1.00
963;DHT22;469;48.770;9.176;2022-12-29T15:24:34;12.40;1.00
963;DHT22;469;48.770;9.176;2022-12-29T15:27:03;12.30;1.00
963;DHT22;469;48.770;9.176;2022-12-29T15:29:37;12.30;1.00
963;DHT22;469;48.770;9.176;2022-12-29T15:32:23;12.20;1.00
963;DHT22;469;48.770;9.176;2022-12-29T15:34:53;12.10;1.00
963;DHT22;469;48.770;9.176;2022-12-29T15:37:24;12.10;1.00
963;DHT22;469;48.770;9.176;2022-12-29T15:39:52;12.10;1.00
963;DHT22;469;48.770;9.176;2022-12-29T15:42:41;12.10;1.00
963;DHT22;469;48.770;9.176;2022-12-29T15:45:13;12.10;1.00
963;DHT22;469;48.770;9.176;2022-12-29T15:47:42;12.10;1.00
963;DHT22;469;48.770;9.176;2022-12-29T15:50:26;12.10;1.00
963;DHT22;469;48.770;9.176;2022-12-29T15:52:55;12.20;1.00
963;DHT22;469;48.770;9.176;2022-12-29T15:55:27;12.30;1.00
963;DHT22;469;48.770;9.176;2022-12-29T15:57:57;12.40;1.00
963;DHT22;469;48.770;9.176;2022-12-29T16:00:26;12.50;1.00
963;DHT22;469;48.770;9.176;2022-12-29T16:02:54;12.50;1.00
963;DHT22;469;48.770;9.176;2022-12-29T16:05:24;12.10;1.00
963;DHT22;469;48.770;9.176;2022-12-29T16:07:53;11.90;1.00
963;DHT22;469;48.770;9.176;2022-12-29T16:10:27;11.60;1.00
963;DHT22;469;48.770;9.176;2022-12-29T16:13:01;11.40;1.00
963;DHT22;469;48.770;9.176;2022-12-29T16:15:29;11.20;1.00
963;DHT22;469;48.770;9.176;2022-12-29T16:17:56;11.20;1.00
963;DHT22;469;48.770;9.176;2022-12-29T16:20:29;11.10;1.00
963;DHT22;469;48.770;9.176;2022-12-29T16:22:59;11.00;1.00
963;DHT22;469;48.770;9.176;2022-12-29T16:25:29;10.70;1.00
963;DHT22;469;48.770;9.176;2022-12-29T16:27:58;10.90;1.00
963;DHT22;469;48.770;9.176;2022-12-29T16:30:27;10.90;1.00
963;DHT22;469;48.770;9.176;2022-12-29T16:32:55;10.90;1.00
963;DHT22;469;48.770;9.176;2022-12-29T16:35:25;11.00;1.00
963;DHT22;469;48.770;9.176;2022-12-29T16:38:10;11.00;1.00
963;DHT22;469;48.770;9.176;2022-12-29T16:40:50;11.10;1.00
963;DHT22;469;48.770;9.176;2022-12-29T16:43:22;11.10;1.00
963;DHT22;469;48.770;9.176;2022-12-29T16:46:18;11.10;1.00
963;DHT22;469;48.770;9.176;2022-12-29T16:48:49;11.20;1.00
963;DHT22;469;48.770;9.176;2022-12-29T16:51:23;11.20;1.00
963;DHT22;469;48.770;9.176;2022-12-29T16:53:55;11.20;1.00
963;DHT22;469;48.770;9.176;2022-12-29T16:56:26;11.20;1.00
963;DHT22;469;48.770;9.176;2022-12-29T16:59:01;11.20;1.00
963;DHT22;469;48.770;9.176;2022-12-29T17:01:28;11.30;1.00
963;DHT22;469;48.770;9.176;2022-12-29T17:03:59;11.30;1.00
963;DHT22;469;48.770;9.176;2022-12-29T17:06:30;11.30;1.00
963;DHT22;469;48.770;9.176;2022-12-29T17:08:57;11.20;1.00
963;DHT22;469;48.770;9.176;2022-12-29T17:11:35;11.20;1.00
963;DHT22;469;48.770;9.176;2022-12-29T17:14:34;11.20;1.00
963;DHT22;469;48.770;9.176;2022-12-29T17:17:02;11.10;1.00
963;DHT22;469;48.770;9.176;2022-12-29T17:19:32;11.10;1.00
963;DHT22;469;48.770;9.176;2022-12-29T17:22:04;11.00;1.00
963;DHT22;469;48.770;9.176;2022-12-29T17:24:35;11.00;1.00
963;DHT22;469;48.770;9.176;2022-12-29T17:27:09;11.00;1.00
963;DHT22;469;48.770;9.176;2022-12-29T18:22:35;11.10;1.00
963;DHT22;469;48.770;9.176;2022-12-29T18:25:11;11.10;1.00
963;DHT22;469;48.770;9.176;2022-12-29T18:27:39;11.20;1.00
963;DHT22;469;48.770;9.176;2022-12-29T18:30:12;11.10;1.00
963;DHT22;469;48.770;9.176;2022-12-29T18:32:42;11.10;1.00
963;DHT22;469;48.770;9.176;2022-12-29T18:35:19;11.00;1.00
963;DHT22;469;48.770;9.176;2022-12-29T18:38:05;10.90;1.00
963;DHT22;469;48.770;9.176;2022-12-29T18:40:32;10.70;1.00
963;DHT22;469;48.770;9.176;2022-12-29T18:43:06;10.70;1.00
963;DHT22;469;48.770;9.176;2022-12-29T18:45:44;10.70;1.00
963;DHT22;469;48.770;9.176;2022-12-29T18:49:25;10.70;1.00
963;DHT22;469;48.770;9.176;2022-12-29T18:51:41;10.70;1.00
963;DHT22;469;48.770;9.176;2022-12-29T18:54:26;10.70;1.00
963;DHT22;469;48.770;9.176;2022-12-29T18:59:53;10.60;1.00
963;DHT22;469;48.770;9.176;2022-12-29T19:02:42;10.60;1.00
963;DHT22;469;48.770;9.176;2022-12-29T19:05:18;10.50;1.00
963;DHT22;469;48.770;9.176;2022-12-29T19:07:45;10.40;1.00
963;DHT22;469;48.770;9.176;2022-12-29T19:10:17;10.30;1.00
963;DHT22;469;48.770;9.176;2022-12-29T19:12:47;10.30;1.00
963;DHT22;469;48.770;9.176;2022-12-29T19:15:20;10.30;1.00
963;DHT22;469;48.770;9.176;2022-12-29T19:17:52;10.30;1.00
963;DHT22;469;48.770;9.176;2022-12-29T19:20:26;10.20;1.00
963;DHT22;469;48.770;9.176;2022-12-29T19:22:59;10.20;1.00
963;DHT22;469;48.770;9.176;2022-12-29T19:25:27;10.20;1.00
963;DHT22;469;48.770;9.176;2022-12-29T19:27:54;10.10;1.00
963;DHT22;469;48.770;9.176;2022-12-29T19:30:26;10.10;1.00
963;DHT22;469;48.770;9.176;2022-12-29T19:33:01;10.10;1.00
963;DHT22;469;48.770;9.176;2022-12-29T19:35:30;10.00;1.00
963;DHT22;469;48.770;9.176;2022-12-29T19:38:03;10.00;1.00
963;DHT22;469;48.770;9.176;2022-12-29T19:40:39;9.90;1.00
963;DHT22;469;48.770;9.176;2022-12-29T19:43:08;9.90;1.00
963;DHT22;469;48.770;9.176;2022-12-29T19:45:38;9.80;1.00
963;DHT22;469;48.770;9.176;2022-12-29T19:48:12;9.80;1.00
963;DHT22;469;48.770;9.176;2022-12-29T19:50:40;9.80;1.00
963;DHT22;469;48.770;9.176;2022-12-29T19:53:06;9.80;1.00
963;DHT22;469;48.770;9.176;2022-12-29T19:55:42;9.80;1.00
963;DHT22;469;48.770;9.176;2022-12-29T19:58:08;9.80;1.00
963;DHT22;469;48.770;9.176;2022-12-29T20:00:40;9.90;1.00
963;DHT22;469;48.770;9.176;2022-12-29T20:03:09;9.80;1.00
963;DHT22;469;48.770;9.176;2022-12-29T20:05:38;9.80;1.00
963;DHT22;469;48.770;9.176;2022-12-29T20:08:05;9.80;1.00
963;DHT22;469;48.770;9.176;2022-12-29T20:10:37;9.70;1.00
963;DHT22;469;48.770;9.176;2022-12-29T20:13:11;9.70;1.00
